Time;durP1;ratioP1;P1;durP2;ratioP2;P2;SDS_P1;SDS_P2;PMS_P1;PMS_P2;Temp;Humidity;BMP_temperature;BMP_pressure;BME280_temperature;BME280_humidity;BME280_pressure;Samples;Min_cycle;Max_cycle;Signal;HPM_P1;HPM_P2
2022/08/06 00:01:04;;;;;;;2.33;0.80;;;19.50;56.20;;;;;;4976184;28;20034;-71
2022/08/06 00:03:29;;;;;;;2.40;0.93;;;19.40;56.30;;;;;;4990252;28;20095;-71
2022/08/06 00:05:55;;;;;;;3.13;1.10;;;19.40;56.30;;;;;;4992070;28;20160;-71
2022/08/06 00:08:21;;;;;;;3.33;1.05;;;19.40;56.40;;;;;;4987602;28;20057;-71
2022/08/06 00:10:46;;;;;;;1.67;0.75;;;19.40;56.50;;;;;;4995380;28;20037;-71
2022/08/06 00:13:12;;;;;;;1.27;0.90;;;19.30;56.50;;;;;;4998861;28;20517;-71
2022/08/06 00:15:37;;;;;;;3.22;0.75;;;19.30;56.60;;;;;;5001730;28;20138;-71
2022/08/06 00:18:03;;;;;;;1.52;1.10;;;19.30;56.60;;;;;;5002590;28;20033;-72
2022/08/06 00:20:29;;;;;;;0.90;0.73;;;19.30;56.70;;;;;;4993905;28;20177;-70
2022/08/06 00:22:54;;;;;;;1.42;0.90;;;19.30;56.80;;;;;;4973382;28;20588;-71
2022/08/06 00:25:20;;;;;;;1.52;0.93;;;19.30;56.90;;;;;;4951879;28;20441;-70
2022/08/06 00:27:45;;;;;;;3.67;1.20;;;19.20;56.90;;;;;;4993506;28;20557;-71
2022/08/06 00:30:11;;;;;;;1.08;0.70;;;19.20;57.00;;;;;;5014552;28;20076;-70
2022/08/06 00:32:36;;;;;;;3.20;0.80;;;19.20;57.10;;;;;;5008298;28;20448;-70
2022/08/06 00:35:03;;;;;;;1.45;1.17;;;19.20;57.10;;;;;;4978524;28;20630;-71
2022/08/06 00:37:31;;;;;;;2.13;1.00;;;19.10;57.20;;;;;;4960564;28;20030;-72
2022/08/06 00:40:00;;;;;;;3.67;0.95;;;19.10;57.30;;;;;;5005041;28;20034;-72
2022/08/06 00:42:26;;;;;;;1.00;0.70;;;19.10;57.40;;;;;;4984659;28;20537;-71
2022/08/06 00:44:52;;;;;;;3.10;0.90;;;19.10;57.50;;;;;;4999027;28;20415;-71
2022/08/06 00:47:17;;;;;;;1.52;0.80;;;19.10;57.60;;;;;;5000051;28;20033;-71
2022/08/06 00:49:43;;;;;;;1.52;0.70;;;19.00;57.70;;;;;;5001856;28;20375;-72
2022/08/06 00:52:08;;;;;;;1.40;0.80;;;19.00;57.70;;;;;;4948482;28;20442;-71
2022/08/06 00:54:34;;;;;;;2.97;0.95;;;19.00;57.80;;;;;;4987932;28;23159;-71
2022/08/06 00:56:59;;;;;;;1.30;0.93;;;19.00;57.80;;;;;;4999256;28;20558;-70
2022/08/06 00:59:25;;;;;;;2.42;1.20;;;18.90;57.90;;;;;;4995482;28;20641;-72
2022/08/06 01:01:50;;;;;;;1.30;1.00;;;18.90;57.90;;;;;;4942822;28;20043;-72
2022/08/06 01:04:16;;;;;;;2.20;1.00;;;18.90;58.00;;;;;;4981418;28;20631;-72
2022/08/06 01:06:41;;;;;;;1.20;0.98;;;18.80;58.10;;;;;;4971320;28;20511;-72
2022/08/06 01:09:08;;;;;;;2.42;1.08;;;18.80;58.20;;;;;;4992542;28;20041;-71
2022/08/06 01:11:33;;;;;;;1.60;0.80;;;18.80;58.30;;;;;;4993316;28;20033;-72
2022/08/06 01:13:59;;;;;;;3.58;1.10;;;18.70;58.30;;;;;;4992618;28;20070;-71
2022/08/06 01:16:29;;;;;;;2.63;0.90;;;18.70;58.50;;;;;;4991963;28;20470;-72
2022/08/06 01:18:59;;;;;;;1.00;0.82;;;18.70;58.70;;;;;;4986519;28;20061;-71
2022/08/06 01:22:02;;;;;;;1.38;1.00;;;18.60;58.70;;;;;;4981385;28;20061;-72
2022/08/06 01:24:33;;;;;;;1.92;0.90;;;18.60;59.10;;;;;;4984196;28;20040;-71
2022/08/06 01:27:36;;;;;;;1.05;0.95;;;18.60;58.70;;;;;;4994520;28;20038;-73
2022/08/06 01:30:05;;;;;;;1.58;0.90;;;18.50;59.10;;;;;;4994875;28;20053;-72
2022/08/06 01:32:34;;;;;;;1.80;1.13;;;18.50;58.80;;;;;;5015240;28;20025;-72
2022/08/06 01:35:02;;;;;;;1.35;0.93;;;18.50;58.90;;;;;;4998165;28;20039;-72
2022/08/06 01:37:50;;;;;;;1.52;0.93;;;18.50;59.00;;;;;;4980016;28;20032;-71
2022/08/06 01:40:21;;;;;;;0.88;0.82;;;18.40;59.20;;;;;;4989043;28;20096;-73
2022/08/06 01:42:47;;;;;;;2.08;1.00;;;18.40;59.30;;;;;;4952733;28;20458;-72
2022/08/06 01:45:15;;;;;;;1.73;1.35;;;18.30;59.90;;;;;;4994171;28;20048;-71
2022/08/06 01:47:42;;;;;;;2.28;1.30;;;18.30;59.30;;;;;;4993012;28;20037;-72
2022/08/06 01:50:08;;;;;;;1.00;0.82;;;18.30;59.40;;;;;;4974483;28;20511;-72
2022/08/06 01:52:35;;;;;;;2.13;1.02;;;18.20;59.40;;;;;;4976633;28;20051;-72
2022/08/06 01:55:00;;;;;;;1.63;1.05;;;18.30;59.60;;;;;;4977475;28;20039;-72
2022/08/06 01:57:26;;;;;;;3.03;1.10;;;18.20;59.60;;;;;;4989094;28;20037;-73
2022/08/06 01:59:53;;;;;;;2.58;1.50;;;18.20;59.70;;;;;;4975310;28;20422;-72
2022/08/06 02:02:21;;;;;;;2.67;1.20;;;18.10;59.80;;;;;;4955653;28;20124;-71
2022/08/06 02:04:49;;;;;;;3.40;1.50;;;18.10;60.00;;;;;;4995749;28;20038;-72
2022/08/06 02:07:15;;;;;;;2.20;1.00;;;18.10;60.00;;;;;;4968188;28;20029;-73
2022/08/06 02:09:41;;;;;;;2.03;1.13;;;18.00;60.00;;;;;;4970104;28;20104;-71
2022/08/06 02:12:08;;;;;;;1.67;1.10;;;18.00;60.20;;;;;;4999636;28;20037;-71
2022/08/06 02:14:36;;;;;;;2.10;0.88;;;18.00;60.20;;;;;;4969058;28;20038;-72
2022/08/06 02:17:02;;;;;;;1.50;1.02;;;18.00;60.30;;;;;;4981422;28;20080;-72
2022/08/06 02:19:29;;;;;;;1.92;1.15;;;17.90;60.40;;;;;;4994922;28;20045;-71
2022/08/06 02:21:55;;;;;;;1.52;1.10;;;17.90;60.50;;;;;;4974709;28;20046;-71
2022/08/06 02:24:22;;;;;;;3.38;1.05;;;17.80;60.60;;;;;;4961120;28;20173;-72
2022/08/06 02:26:47;;;;;;;1.88;1.30;;;17.80;60.60;;;;;;4999610;28;20045;-72
2022/08/06 02:29:15;;;;;;;1.20;1.10;;;17.80;60.70;;;;;;4995931;28;20029;-73
2022/08/06 02:31:42;;;;;;;2.97;1.10;;;17.80;60.80;;;;;;4981513;28;20041;-72
2022/08/06 02:34:07;;;;;;;1.67;0.88;;;17.80;60.90;;;;;;4972381;28;20045;-72
2022/08/06 02:36:36;;;;;;;3.25;1.10;;;17.70;60.90;;;;;;4968638;28;20037;-72
2022/08/06 02:39:06;;;;;;;3.03;1.10;;;17.70;61.10;;;;;;4972941;28;20113;-72
2022/08/06 02:41:45;;;;;;;3.83;1.10;;;17.70;61.20;;;;;;4990680;28;20596;-71
2022/08/06 02:44:55;;;;;;;2.95;1.38;;;17.60;61.40;;;;;;4986771;28;20064;-72
2022/08/06 02:47:22;;;;;;;1.67;1.10;;;17.60;61.50;;;;;;4993671;28;20122;-71
2022/08/06 02:49:50;;;;;;;2.08;1.40;;;17.60;61.40;;;;;;5001317;28;20076;-72
2022/08/06 02:52:42;;;;;;;5.13;1.35;;;17.50;61.40;;;;;;4962936;28;20117;-73
2022/08/06 02:55:16;;;;;;;1.60;1.17;;;17.50;62.10;;;;;;4942837;28;20026;-72
2022/08/06 02:57:49;;;;;;;2.50;1.30;;;17.50;62.00;;;;;;4964965;28;20042;-72
2022/08/06 03:00:15;;;;;;;1.00;1.00;;;17.40;61.90;;;;;;4969566;28;20391;-72
2022/08/06 03:02:41;;;;;;;1.70;1.23;;;17.40;61.90;;;;;;4935351;28;20594;-72
2022/08/06 03:05:08;;;;;;;3.90;1.30;;;17.40;62.10;;;;;;4953343;28;20034;-72
2022/08/06 03:07:34;;;;;;;1.27;1.17;;;17.40;62.00;;;;;;4967439;28;20040;-72
2022/08/06 03:10:00;;;;;;;2.50;1.00;;;17.40;62.30;;;;;;4947819;28;20034;-72
2022/08/06 03:12:26;;;;;;;1.10;1.00;;;17.40;62.30;;;;;;4974436;28;20581;-72
2022/08/06 03:14:52;;;;;;;1.52;1.10;;;17.30;62.30;;;;;;4964925;28;20056;-72
2022/08/06 03:17:17;;;;;;;2.30;1.08;;;17.30;62.30;;;;;;4930620;28;20037;-71
2022/08/06 03:19:43;;;;;;;1.35;1.25;;;17.30;62.50;;;;;;4980078;28;20042;-72
2022/08/06 03:22:09;;;;;;;3.70;1.30;;;17.30;62.60;;;;;;4970675;28;20030;-72
2022/08/06 03:24:34;;;;;;;3.25;1.08;;;17.20;62.70;;;;;;4984243;28;20049;-71
2022/08/06 03:27:00;;;;;;;1.67;1.10;;;17.20;62.70;;;;;;5018928;28;20037;-72
2022/08/06 03:29:26;;;;;;;3.80;1.33;;;17.20;62.80;;;;;;4968664;28;20041;-71
2022/08/06 03:31:52;;;;;;;2.40;1.13;;;17.20;62.90;;;;;;5005980;28;20048;-71
2022/08/06 03:34:17;;;;;;;1.55;1.10;;;17.10;62.90;;;;;;4985380;28;20064;-71
2022/08/06 03:36:43;;;;;;;1.70;1.20;;;17.10;63.00;;;;;;4982556;28;20197;-72
2022/08/06 03:39:09;;;;;;;2.65;1.58;;;17.10;63.10;;;;;;4997673;28;20045;-72
2022/08/06 03:41:36;;;;;;;1.92;1.30;;;17.10;63.20;;;;;;5014994;28;20041;-73
2022/08/06 03:44:02;;;;;;;1.90;1.38;;;17.10;63.40;;;;;;4991093;28;20038;-72
2022/08/06 03:46:47;;;;;;;1.20;1.02;;;17.00;64.10;;;;;;4980142;28;20038;-71
2022/08/06 03:49:32;;;;;;;2.25;1.10;;;17.00;63.60;;;;;;4947750;28;20487;-72
2022/08/06 03:51:59;;;;;;;1.67;1.10;;;17.00;63.80;;;;;;4989496;28;20181;-73
2022/08/06 03:54:26;;;;;;;1.42;1.00;;;16.90;63.40;;;;;;4964437;28;20064;-72
2022/08/06 03:56:52;;;;;;;2.25;1.35;;;16.90;63.50;;;;;;5008534;28;20038;-72
2022/08/06 03:59:18;;;;;;;1.27;1.17;;;16.90;63.60;;;;;;4981231;28;20039;-72
2022/08/06 04:01:43;;;;;;;1.98;1.30;;;16.80;63.60;;;;;;4984721;28;20061;-71
2022/08/06 04:04:09;;;;;;;3.05;1.40;;;16.80;63.70;;;;;;4967234;28;20072;-71
2022/08/06 04:06:35;;;;;;;2.53;2.30;;;16.80;63.80;;;;;;4999593;28;20120;-71
2022/08/06 04:09:00;;;;;;;2.25;1.00;;;16.80;63.90;;;;;;4987520;28;20115;-71
2022/08/06 04:11:26;;;;;;;2.10;1.20;;;16.70;63.80;;;;;;5003485;28;20612;-72
2022/08/06 04:13:51;;;;;;;2.25;1.20;;;16.70;64.00;;;;;;5007730;28;20037;-71
2022/08/06 04:16:18;;;;;;;1.50;0.93;;;16.70;64.00;;;;;;4974118;28;20037;-72
2022/08/06 04:18:43;;;;;;;1.40;1.30;;;16.70;64.00;;;;;;5001793;28;20033;-71
2022/08/06 04:21:18;;;;;;;1.50;1.40;;;16.60;64.00;;;;;;5019683;28;20026;-71
2022/08/06 04:23:44;;;;;;;3.10;1.02;;;16.60;64.90;;;;;;4998191;28;20103;-72
2022/08/06 04:26:09;;;;;;;2.90;1.20;;;16.60;64.20;;;;;;5014115;28;20120;-71
2022/08/06 04:28:36;;;;;;;2.35;1.23;;;16.60;64.30;;;;;;4995337;28;20102;-72
2022/08/06 04:31:01;;;;;;;3.10;1.15;;;16.50;64.30;;;;;;4966394;28;20050;-72
2022/08/06 04:33:27;;;;;;;1.77;0.90;;;16.50;64.30;;;;;;4994227;28;20530;-71
2022/08/06 04:35:53;;;;;;;2.08;1.02;;;16.50;64.40;;;;;;4997730;28;20078;-72
2022/08/06 04:38:20;;;;;;;1.40;1.30;;;16.40;64.40;;;;;;5012380;28;20040;-73
2022/08/06 04:40:45;;;;;;;1.77;0.98;;;16.40;64.40;;;;;;4999917;28;20465;-71
2022/08/06 04:43:11;;;;;;;1.33;1.15;;;16.40;64.50;;;;;;4997772;28;20049;-72
2022/08/06 04:45:38;;;;;;;2.00;1.02;;;16.40;64.70;;;;;;5003036;28;20053;-71
2022/08/06 04:48:05;;;;;;;1.15;0.85;;;16.30;64.70;;;;;;4987575;28;20095;-71
2022/08/06 04:50:31;;;;;;;2.00;1.30;;;16.30;64.80;;;;;;4980352;28;20037;-72
2022/08/06 04:53:13;;;;;;;1.95;1.10;;;16.30;64.90;;;;;;4979429;28;20111;-73
2022/08/06 04:55:39;;;;;;;1.85;1.13;;;16.30;65.40;;;;;;4972029;28;20045;-70
2022/08/06 04:58:06;;;;;;;2.05;1.40;;;16.30;65.10;;;;;;4961946;28;20089;-71
2022/08/06 05:00:33;;;;;;;1.38;1.27;;;16.20;65.20;;;;;;4973846;28;20041;-71
2022/08/06 05:02:59;;;;;;;1.85;1.00;;;16.20;65.20;;;;;;4960273;28;20111;-71
2022/08/06 05:05:24;;;;;;;3.83;1.17;;;16.20;65.40;;;;;;4991046;28;20499;-71
2022/08/06 05:07:51;;;;;;;2.88;1.20;;;16.20;65.40;;;;;;4973359;28;20465;-72
2022/08/06 05:10:17;;;;;;;1.27;1.17;;;16.20;65.50;;;;;;4965742;28;20100;-71
2022/08/06 05:12:45;;;;;;;1.85;1.13;;;16.20;65.50;;;;;;4974339;28;20042;-73
2022/08/06 05:15:22;;;;;;;2.75;1.20;;;16.20;65.60;;;;;;4972284;28;20052;-72
2022/08/06 05:17:56;;;;;;;1.10;1.00;;;16.30;65.60;;;;;;4978080;28;20085;-72
2022/08/06 05:20:21;;;;;;;2.30;1.38;;;16.20;65.90;;;;;;4965118;28;20053;-72
2022/08/06 05:22:49;;;;;;;3.67;1.35;;;16.30;65.90;;;;;;4986290;28;20085;-71
2022/08/06 05:25:14;;;;;;;1.27;1.20;;;16.30;65.90;;;;;;4970406;28;20045;-73
2022/08/06 05:27:40;;;;;;;1.75;1.33;;;16.30;66.00;;;;;;4950448;28;20132;-70
2022/08/06 05:30:07;;;;;;;2.90;1.42;;;16.40;66.00;;;;;;4983941;28;20084;-71
2022/08/06 05:32:49;;;;;;;3.53;1.30;;;16.40;66.10;;;;;;4984627;28;20033;-71
2022/08/06 05:35:15;;;;;;;2.72;1.60;;;16.40;66.50;;;;;;4979988;28;20033;-71
2022/08/06 05:37:40;;;;;;;3.33;1.70;;;16.50;66.30;;;;;;4981683;28;20033;-72
2022/08/06 05:40:06;;;;;;;2.35;1.30;;;16.50;66.40;;;;;;4984179;28;20034;-71
2022/08/06 05:42:32;;;;;;;3.17;1.30;;;16.50;66.40;;;;;;4984349;28;20046;-71
2022/08/06 05:44:57;;;;;;;2.45;1.33;;;16.50;66.20;;;;;;4958163;28;20033;-71
2022/08/06 05:47:25;;;;;;;1.63;1.00;;;16.60;66.30;;;;;;4986522;28;20041;-71
2022/08/06 05:49:59;;;;;;;1.88;1.20;;;16.60;66.10;;;;;;4981323;28;20071;-71
2022/08/06 05:52:28;;;;;;;1.30;1.00;;;16.70;66.20;;;;;;4988912;28;20126;-71
2022/08/06 05:55:00;;;;;;;2.78;1.10;;;16.70;65.90;;;;;;4988955;28;20041;-70
2022/08/06 05:57:36;;;;;;;1.20;0.90;;;16.70;65.90;;;;;;5000051;28;20030;-73
2022/08/06 06:00:09;;;;;;;2.50;1.15;;;16.70;66.60;;;;;;5002408;28;20042;-72
2022/08/06 06:02:34;;;;;;;3.03;1.10;;;16.80;65.70;;;;;;4993407;28;20030;-71
2022/08/06 06:05:00;;;;;;;7.50;1.40;;;16.80;65.50;;;;;;4992435;28;20171;-71
2022/08/06 06:07:26;;;;;;;2.53;1.40;;;16.80;65.40;;;;;;4955957;28;22272;-72
2022/08/06 06:09:51;;;;;;;2.45;1.45;;;16.90;65.60;;;;;;4971480;28;20075;-71
2022/08/06 06:12:17;;;;;;;1.92;0.90;;;16.90;65.40;;;;;;4985373;28;20112;-72
2022/08/06 06:14:44;;;;;;;2.22;1.00;;;17.00;65.20;;;;;;4993290;28;20029;-73
2022/08/06 06:17:57;;;;;;;1.33;1.05;;;17.00;65.10;;;;;;4972986;28;20033;-71
2022/08/06 06:20:43;;;;;;;3.05;1.30;;;17.10;65.20;;;;;;4998041;28;20033;-70
2022/08/06 06:23:42;;;;;;;0.77;0.77;;;17.20;64.70;;;;;;4978105;28;20038;-70
2022/08/06 06:27:01;;;;;;;2.17;1.35;;;17.30;64.50;;;;;;4997626;28;20042;-70
2022/08/06 06:30:05;;;;;;;1.20;1.10;;;17.30;64.30;;;;;;4942731;28;20080;-72
2022/08/06 06:32:51;;;;;;;3.95;0.98;;;17.40;63.90;;;;;;4950632;28;20045;-70
2022/08/06 06:35:39;;;;;;;7.60;0.80;;;17.60;63.60;;;;;;4932459;28;20042;-72
2022/08/06 06:38:12;;;;;;;13.35;0.85;;;17.60;62.80;;;;;;4954173;28;20995;-71
2022/08/06 06:40:43;;;;;;;4.53;1.50;;;17.70;62.60;;;;;;4968744;28;20072;-71
2022/08/06 06:43:22;;;;;;;0.98;0.60;;;17.80;62.20;;;;;;4950414;28;20043;-70
2022/08/06 06:45:56;;;;;;;12.40;0.93;;;17.90;61.70;;;;;;4960195;28;20042;-71
2022/08/06 06:48:42;;;;;;;1.70;0.80;;;18.00;61.30;;;;;;4918919;28;20517;-70
2022/08/06 06:51:13;;;;;;;3.13;0.50;;;18.10;61.00;;;;;;4947437;28;20556;-72
2022/08/06 06:53:40;;;;;;;0.97;0.60;;;18.20;60.50;;;;;;4953182;28;20683;-71
2022/08/06 06:56:06;;;;;;;1.10;0.55;;;18.30;60.10;;;;;;4932604;28;20628;-71
2022/08/06 06:58:36;;;;;;;2.33;0.60;;;18.40;59.80;;;;;;4939956;28;20042;-72
2022/08/06 07:01:04;;;;;;;5.57;0.68;;;18.50;59.40;;;;;;4929943;28;20495;-72
2022/08/06 07:03:30;;;;;;;2.58;0.32;;;18.60;59.00;;;;;;4938233;28;20045;-72
2022/08/06 07:05:57;;;;;;;3.42;0.30;;;18.70;58.70;;;;;;4993984;28;20092;-71
2022/08/06 07:08:23;;;;;;;1.45;0.40;;;18.80;58.30;;;;;;4989702;28;20515;-74
2022/08/06 07:10:49;;;;;;;22.73;1.77;;;18.90;58.70;;;;;;4989117;28;20100;-73
2022/08/06 07:13:14;;;;;;;4.38;0.80;;;19.00;57.70;;;;;;4967059;28;20648;-72
2022/08/06 07:15:40;;;;;;;4.68;0.80;;;19.10;57.30;;;;;;4986560;28;20767;-72
2022/08/06 07:18:06;;;;;;;3.50;0.45;;;19.30;57.20;;;;;;4964142;28;20056;-72
2022/08/06 07:20:31;;;;;;;1.23;0.30;;;19.30;56.70;;;;;;4967853;28;20038;-71
2022/08/06 07:23:05;;;;;;;2.83;0.50;;;19.50;56.40;;;;;;4975957;28;20049;-72
2022/08/06 07:25:32;;;;;;;3.97;0.50;;;19.60;55.70;;;;;;4961011;28;20042;-71
2022/08/06 07:27:58;;;;;;;1.95;0.40;;;19.70;55.60;;;;;;4985218;28;20509;-71
2022/08/06 07:30:24;;;;;;;2.28;0.28;;;19.80;55.30;;;;;;4979229;28;20042;-71
2022/08/06 07:32:49;;;;;;;3.90;0.43;;;19.90;55.60;;;;;;4966050;28;20045;-71
2022/08/06 07:35:16;;;;;;;1.45;0.40;;;20.10;54.70;;;;;;4999750;28;20042;-74
2022/08/06 07:37:54;;;;;;;5.05;0.60;;;20.20;54.40;;;;;;5013721;28;20038;-72
2022/08/06 07:40:27;;;;;;;2.25;0.40;;;20.30;53.90;;;;;;4998271;28;20034;-72
2022/08/06 07:42:55;;;;;;;0.77;0.43;;;20.40;53.50;;;;;;4978277;28;21064;-72
2022/08/06 07:45:21;;;;;;;1.70;0.57;;;20.60;53.30;;;;;;4998310;28;20130;-72
2022/08/06 07:47:47;;;;;;;1.27;0.50;;;20.70;53.00;;;;;;5002083;28;20781;-72
2022/08/06 07:50:13;;;;;;;1.98;0.38;;;20.80;52.70;;;;;;4978287;28;20057;-73
2022/08/06 07:52:39;;;;;;;2.33;0.30;;;20.90;52.30;;;;;;4974170;28;20034;-72
2022/08/06 07:55:06;;;;;;;3.83;0.40;;;21.10;52.10;;;;;;5006655;28;20042;-72
2022/08/06 07:57:32;;;;;;;1.45;0.30;;;21.30;51.70;;;;;;4981112;28;20170;-73
2022/08/06 07:59:57;;;;;;;2.50;0.30;;;21.40;51.30;;;;;;4985429;28;20547;-72
2022/08/06 08:02:23;;;;;;;2.42;0.77;;;21.60;50.90;;;;;;4981604;28;20038;-71
2022/08/06 08:07:33;;;;;;;4.25;0.55;;;21.80;50.40;;;;;;5001512;28;20049;-73
2022/08/06 08:09:58;;;;;;;3.53;0.50;;;21.90;50.00;;;;;;4982855;28;20276;-73
2022/08/06 08:12:24;;;;;;;2.20;0.25;;;22.10;49.70;;;;;;4980022;28;20406;-73
2022/08/06 08:14:50;;;;;;;78.65;10.63;;;22.20;49.30;;;;;;5001875;28;20087;-72
2022/08/06 08:17:15;;;;;;;8.23;1.40;;;22.40;49.10;;;;;;4990464;28;20111;-72
2022/08/06 08:19:41;;;;;;;2.00;0.55;;;22.60;48.70;;;;;;4971140;28;20529;-72
2022/08/06 08:22:09;;;;;;;5.95;0.40;;;22.70;48.20;;;;;;5010253;28;20065;-73
2022/08/06 08:24:36;;;;;;;6.13;0.50;;;22.90;47.90;;;;;;4994409;28;20033;-74
2022/08/06 08:27:03;;;;;;;5.60;0.40;;;23.00;47.70;;;;;;4998428;28;20048;-73
2022/08/06 08:29:29;;;;;;;2.15;0.32;;;23.10;47.30;;;;;;4998647;28;20029;-73
2022/08/06 08:31:54;;;;;;;2.50;0.20;;;23.20;46.90;;;;;;4994688;28;20032;-72
2022/08/06 08:34:20;;;;;;;0.77;0.38;;;23.40;46.70;;;;;;4978851;28;20116;-72
2022/08/06 08:36:45;;;;;;;2.67;0.30;;;23.50;46.40;;;;;;5008294;28;20060;-71
2022/08/06 08:39:11;;;;;;;18.50;1.25;;;23.70;46.10;;;;;;4977955;28;20083;-72
2022/08/06 08:41:39;;;;;;;3.10;0.43;;;23.80;45.90;;;;;;4995534;28;20055;-71
2022/08/06 08:44:06;;;;;;;11.57;0.80;;;24.00;45.60;;;;;;4981113;28;20038;-71
2022/08/06 08:46:39;;;;;;;8.32;0.82;;;24.20;45.20;;;;;;4997535;28;20053;-73
2022/08/06 08:49:06;;;;;;;4.07;0.47;;;24.30;45.10;;;;;;4977779;28;20044;-72
2022/08/06 08:51:37;;;;;;;10.25;1.20;;;24.50;44.50;;;;;;4987701;28;20046;-72
2022/08/06 08:54:05;;;;;;;8.07;0.70;;;24.60;44.20;;;;;;4988444;28;20514;-72
2022/08/06 08:56:31;;;;;;;2.85;0.88;;;24.70;44.00;;;;;;5014771;28;20129;-72
2022/08/06 08:58:56;;;;;;;2.53;0.47;;;24.90;43.70;;;;;;5006613;28;20503;-71
2022/08/06 09:01:22;;;;;;;1.33;0.60;;;25.00;43.40;;;;;;5018101;28;20093;-71
2022/08/06 09:03:47;;;;;;;8.85;0.75;;;25.20;43.30;;;;;;5013890;28;20052;-71
2022/08/06 09:06:13;;;;;;;10.30;1.33;;;25.30;42.90;;;;;;5019014;28;20120;-71
2022/08/06 09:08:38;;;;;;;4.63;0.60;;;25.50;42.60;;;;;;5006774;28;20041;-71
2022/08/06 09:11:04;;;;;;;3.15;0.80;;;25.60;42.30;;;;;;5007337;28;20035;-70
2022/08/06 09:13:30;;;;;;;12.88;1.63;;;25.70;42.00;;;;;;5011302;28;20041;-73
2022/08/06 09:15:55;;;;;;;1.25;0.30;;;25.90;41.80;;;;;;5003811;28;20823;-71
2022/08/06 09:18:21;;;;;;;5.60;0.35;;;26.00;41.60;;;;;;4999195;28;20056;-70
2022/08/06 09:20:48;;;;;;;0.75;0.30;;;26.10;41.30;;;;;;4974963;28;20842;-70
2022/08/06 09:23:15;;;;;;;0.73;0.22;;;26.20;41.10;;;;;;4999652;28;20034;-72
2022/08/06 09:25:42;;;;;;;1.02;0.20;;;26.30;40.90;;;;;;5030730;28;20080;-72
2022/08/06 09:28:11;;;;;;;0.45;0.30;;;26.40;40.70;;;;;;4983427;28;20037;-71
2022/08/06 09:30:38;;;;;;;0.68;0.15;;;26.60;40.20;;;;;;5010254;28;20034;-71
2022/08/06 09:33:10;;;;;;;2.70;0.30;;;26.70;40.20;;;;;;5020553;28;20091;-71
2022/08/06 09:35:35;;;;;;;2.63;0.30;;;26.80;39.50;;;;;;4982381;28;20709;-71
2022/08/06 09:38:06;;;;;;;1.75;0.30;;;26.90;39.60;;;;;;4991855;28;20045;-71
2022/08/06 09:40:31;;;;;;;0.47;0.20;;;26.90;39.10;;;;;;4994496;28;20034;-72
2022/08/06 09:42:57;;;;;;;0.40;0.30;;;27.00;39.00;;;;;;4962754;28;20147;-71
2022/08/06 09:45:23;;;;;;;2.15;0.30;;;27.10;38.90;;;;;;4974725;28;20117;-71
2022/08/06 09:48:03;;;;;;;2.33;0.30;;;27.20;38.50;;;;;;4976582;28;20037;-71
2022/08/06 09:50:42;;;;;;;6.63;0.60;;;27.40;38.30;;;;;;4976269;28;20816;-72
2022/08/06 09:53:08;;;;;;;4.03;0.30;;;27.50;37.40;;;;;;4991167;28;20112;-70
2022/08/06 09:55:34;;;;;;;2.08;0.20;;;27.70;37.90;;;;;;4994926;28;20510;-72
2022/08/06 09:57:59;;;;;;;1.25;0.22;;;27.90;37.60;;;;;;4955892;28;20125;-72
2022/08/06 10:00:30;;;;;;;0.52;0.15;;;28.00;37.30;;;;;;4987742;28;20042;-72
2022/08/06 10:02:56;;;;;;;;;;;28.10;37.00;;;;;;4988126;28;20045;-72
2022/08/06 10:05:22;;;;;;;0.20;0.20;;;28.20;37.10;;;;;;4993717;28;19914;-73
2022/08/06 10:07:48;;;;;;;1.13;0.30;;;28.40;37.20;;;;;;4996896;28;20041;-72
2022/08/06 10:10:13;;;;;;;1.95;0.30;;;28.40;36.70;;;;;;4989756;28;20030;-72
2022/08/06 10:12:39;;;;;;;2.03;0.35;;;28.50;36.50;;;;;;4957034;28;20161;-72
2022/08/06 10:15:05;;;;;;;2.50;0.22;;;28.60;36.20;;;;;;5005967;28;20036;-71
2022/08/06 10:17:31;;;;;;;2.55;0.40;;;28.80;36.00;;;;;;4981093;28;20645;-71
2022/08/06 10:20:14;;;;;;;0.55;0.28;;;29.00;35.80;;;;;;4976574;28;20025;-71
2022/08/06 10:22:57;;;;;;;0.30;0.10;;;29.10;34.50;;;;;;4990613;28;20038;-72
2022/08/06 10:25:23;;;;;;;1.25;0.22;;;29.20;34.40;;;;;;4970718;28;20034;-72
2022/08/06 10:27:49;;;;;;;1.50;0.32;;;29.30;34.90;;;;;;4975325;28;20060;-72
2022/08/06 10:30:14;;;;;;;1.73;0.32;;;29.30;34.70;;;;;;4969573;28;20555;-71
2022/08/06 10:32:39;;;;;;;2.55;0.30;;;29.40;34.60;;;;;;4980974;28;20041;-72
2022/08/06 10:35:05;;;;;;;2.83;0.80;;;29.60;34.40;;;;;;4982445;28;20041;-70
2022/08/06 10:37:33;;;;;;;2.80;0.50;;;29.60;34.10;;;;;;4976462;28;20046;-71
2022/08/06 10:39:59;;;;;;;2.72;0.30;;;29.80;33.90;;;;;;4955406;28;20052;-71
2022/08/06 10:42:25;;;;;;;4.47;0.40;;;29.80;33.50;;;;;;4981873;28;20076;-71
2022/08/06 10:44:50;;;;;;;23.27;1.38;;;30.00;33.50;;;;;;4992914;28;20030;-71
2022/08/06 10:47:16;;;;;;;15.77;4.47;;;30.10;33.30;;;;;;4992661;28;20687;-72
2022/08/06 10:49:42;;;;;;;12.45;3.35;;;30.30;33.20;;;;;;4973921;28;20545;-72
2022/08/06 10:52:09;;;;;;;6.82;0.40;;;30.40;32.90;;;;;;4963093;28;20025;-71
2022/08/06 10:54:35;;;;;;;6.20;0.57;;;30.50;32.60;;;;;;4981826;28;20037;-72
2022/08/06 10:57:00;;;;;;;5.40;1.27;;;30.60;32.40;;;;;;4961556;28;20036;-74
2022/08/06 10:59:26;;;;;;;8.07;1.05;;;30.70;32.20;;;;;;4944517;28;20084;-72
2022/08/06 11:02:03;;;;;;;5.82;0.90;;;30.80;32.10;;;;;;4978967;28;20041;-73
2022/08/06 11:04:46;;;;;;;1.02;0.32;;;31.00;31.40;;;;;;4997165;28;20038;-72
2022/08/06 11:07:37;;;;;;;2.08;0.35;;;31.10;31.40;;;;;;4983525;28;20045;-71
2022/08/06 11:10:19;;;;;;;1.05;0.15;;;31.10;30.60;;;;;;4973171;28;20038;-73
2022/08/06 11:12:55;;;;;;;1.50;0.10;;;31.10;30.60;;;;;;4989487;28;20132;-72
2022/08/06 11:15:20;;;;;;;5.80;0.45;;;31.30;30.50;;;;;;4977801;28;20148;-73
2022/08/06 11:18:06;;;;;;;1.20;0.25;;;31.50;30.90;;;;;;4994531;28;20057;-72
2022/08/06 11:20:32;;;;;;;1.88;0.40;;;31.60;29.70;;;;;;4970445;28;20445;-71
2022/08/06 11:23:01;;;;;;;1.83;0.40;;;31.70;30.30;;;;;;5007900;28;20037;-72
2022/08/06 11:25:42;;;;;;;0.90;0.22;;;31.80;30.00;;;;;;4981387;28;20038;-72
2022/08/06 11:28:09;;;;;;;1.38;0.40;;;31.80;29.40;;;;;;4984527;28;20075;-72
2022/08/06 11:30:45;;;;;;;1.02;0.40;;;31.90;29.70;;;;;;4974520;28;20119;-72
2022/08/06 11:33:11;;;;;;;1.42;0.10;;;32.00;29.10;;;;;;4962433;28;20491;-73
2022/08/06 11:35:37;;;;;;;0.20;0.20;;;32.00;29.40;;;;;;4993387;28;20510;-72
2022/08/06 11:38:04;;;;;;;0.95;0.20;;;32.20;29.30;;;;;;4982889;28;20037;-73
2022/08/06 11:40:57;;;;;;;1.23;0.32;;;32.30;29.00;;;;;;4997836;28;20034;-73
2022/08/06 11:43:53;;;;;;;0.63;0.20;;;32.30;28.10;;;;;;4981266;28;20045;-72
2022/08/06 11:46:25;;;;;;;0.75;0.20;;;32.50;28.20;;;;;;4978970;28;20053;-72
2022/08/06 11:49:00;;;;;;;0.63;0.20;;;32.60;28.60;;;;;;4975901;28;20553;-73
2022/08/06 11:51:45;;;;;;;1.67;0.20;;;32.70;28.00;;;;;;5011681;28;20041;-73
2022/08/06 11:54:32;;;;;;;0.98;0.30;;;32.70;27.50;;;;;;4994044;28;20041;-71
2022/08/06 11:57:01;;;;;;;0.45;0.15;;;32.80;27.80;;;;;;4976163;28;20037;-71
2022/08/06 11:59:55;;;;;;;0.82;0.20;;;32.80;28.10;;;;;;4988100;28;20772;-71
2022/08/06 12:02:39;;;;;;;0.63;0.20;;;33.00;27.40;;;;;;4988837;28;20045;-71
2022/08/06 12:05:14;;;;;;;2.72;0.30;;;33.00;27.00;;;;;;4975992;28;20030;-71
2022/08/06 12:07:41;;;;;;;0.40;0.30;;;33.00;27.70;;;;;;5003493;28;20072;-71
2022/08/06 12:10:06;;;;;;;0.25;0.05;;;33.10;27.60;;;;;;5000175;28;20038;-71
2022/08/06 12:12:45;;;;;;;1.35;0.30;;;33.10;27.40;;;;;;5008652;28;20451;-71
2022/08/06 12:15:16;;;;;;;1.17;0.20;;;33.10;26.90;;;;;;4997941;28;20041;-71
2022/08/06 12:17:54;;;;;;;0.73;0.20;;;33.10;27.10;;;;;;5006502;28;20590;-71
2022/08/06 12:20:35;;;;;;;0.40;0.10;;;33.00;26.70;;;;;;4995635;28;20061;-71
2022/08/06 12:23:08;;;;;;;1.20;0.13;;;33.10;26.60;;;;;;4991884;28;20134;-71
2022/08/06 12:25:44;;;;;;;0.20;0.20;;;33.30;27.10;;;;;;4991536;28;20088;-71
2022/08/06 12:28:11;;;;;;;1.38;0.38;;;33.40;26.90;;;;;;5004047;28;20069;-71
2022/08/06 12:30:45;;;;;;;2.58;0.20;;;33.50;26.80;;;;;;4996683;28;20042;-71
2022/08/06 12:33:12;;;;;;;0.22;0.10;;;33.60;26.50;;;;;;4989693;28;20033;-71
2022/08/06 12:35:57;;;;;;;1.55;0.20;;;33.80;26.70;;;;;;5026977;28;20707;-72
2022/08/06 12:38:25;;;;;;;0.50;0.30;;;33.90;26.00;;;;;;4985562;28;20044;-72
2022/08/06 12:41:01;;;;;;;0.85;0.20;;;34.10;26.50;;;;;;5001079;28;20124;-72
2022/08/06 12:43:27;;;;;;;1.90;0.28;;;34.10;25.80;;;;;;4962497;28;20585;-71
2022/08/06 12:45:57;;;;;;;0.38;0.10;;;34.20;26.10;;;;;;4973243;28;20037;-71
2022/08/06 12:48:22;;;;;;;4.60;0.40;;;34.30;25.90;;;;;;5009092;28;20033;-72
2022/08/06 12:50:48;;;;;;;3.70;0.65;;;34.40;25.90;;;;;;5004922;28;20040;-71
2022/08/06 12:53:17;;;;;;;1.73;0.35;;;34.40;25.80;;;;;;4989394;28;20034;-72
2022/08/06 12:55:43;;;;;;;0.55;0.13;;;34.50;25.70;;;;;;4968503;28;20112;-72
2022/08/06 12:58:09;;;;;;;1.20;0.30;;;34.60;25.60;;;;;;5006547;28;20327;-72
2022/08/06 13:00:35;;;;;;;3.55;0.38;;;34.60;25.50;;;;;;4986638;28;20033;-72